createdAt,value
2018-03-07T00:03:20.923Z,88.20
2018-03-07T00:08:21.880Z,83.53
2018-03-07T00:13:22.815Z,85.40
2018-03-07T00:18:23.756Z,90.67
2018-03-07T00:23:24.700Z,81.73
2018-03-07T00:28:25.629Z,90.00
2018-03-07T00:33:26.565Z,88.20
2018-03-07T00:38:27.500Z,88.80
2018-03-07T00:43:28.445Z,84.77
2018-03-07T00:48:29.382Z,89.40
2018-03-07T00:53:30.317Z,87.10
2018-03-07T00:58:31.270Z,91.30
2018-03-07T01:03:32.208Z,84.63
2018-03-07T01:08:33.172Z,91.97
2018-03-07T01:13:34.102Z,84.00
2018-03-07T01:18:35.056Z,86.50
2018-03-07T01:23:35.964Z,83.70
2018-03-07T01:28:36.898Z,85.30
2018-03-07T01:33:37.833Z,89.77
2018-03-07T01:38:38.769Z,88.50
2018-03-07T01:43:39.733Z,85.17
2018-03-07T01:48:40.666Z,89.10
2018-03-07T01:53:41.592Z,92.93
2018-03-07T01:58:42.532Z,93.90
2018-03-07T02:03:43.444Z,93.90
2018-03-07T02:08:44.408Z,90.53
2018-03-07T02:13:45.331Z,98.50
2018-03-07T02:18:46.281Z,93.97
2018-03-07T02:23:47.221Z,98.33
2018-03-07T02:28:48.177Z,94.30
2018-03-07T02:33:49.121Z,94.00
2018-03-07T02:38:50.065Z,93.53
2018-03-07T02:43:50.993Z,93.40
2018-03-07T02:48:51.941Z,94.60
2018-03-07T02:53:52.900Z,96.80
2018-03-07T02:58:53.798Z,102.63
2018-03-07T03:03:54.739Z,96.27
2018-03-07T03:08:55.694Z,97.60
2018-03-07T03:13:56.627Z,96.27
2018-03-07T03:18:57.574Z,98.30
2018-03-07T03:23:58.495Z,102.30
2018-03-07T03:28:59.437Z,104.57
2018-03-07T03:34:00.368Z,102.57
2018-03-07T03:39:01.292Z,102.80
2018-03-07T03:44:02.219Z,102.73
2018-03-07T03:49:03.136Z,102.67
2018-03-07T03:54:04.055Z,105.30
2018-03-07T03:59:05.008Z,106.00
2018-03-07T04:04:05.916Z,103.63
2018-03-07T04:09:06.876Z,97.17
2018-03-07T04:14:07.808Z,104.10
2018-03-07T04:19:08.745Z,98.40
2018-03-07T04:24:09.676Z,99.77
2018-03-07T04:29:10.609Z,102.07
2018-03-07T04:34:11.567Z,100.83
2018-03-07T04:39:12.518Z,99.03
2018-03-07T04:44:13.457Z,100.33
2018-03-07T04:49:14.368Z,103.87
2018-03-07T04:54:15.295Z,99.97
2018-03-07T04:59:16.202Z,101.67
2018-03-07T05:04:17.138Z,101.87
2018-03-07T05:09:18.100Z,101.17
2018-03-07T05:14:19.024Z,106.40
2018-03-07T05:19:19.942Z,104.77
2018-03-07T05:24:20.919Z,107.63
2018-03-07T05:29:21.811Z,108.20
2018-03-07T05:34:22.736Z,106.20
2018-03-07T05:39:23.673Z,108.33
2018-03-07T05:44:24.610Z,108.50
2018-03-07T05:49:25.546Z,110.87
2018-03-07T05:54:26.484Z,112.97
2018-03-07T05:59:27.425Z,113.40
2018-03-07T06:04:28.342Z,110.80
2018-03-07T06:09:29.320Z,110.30
2018-03-07T06:14:30.266Z,111.77
2018-03-07T06:19:31.214Z,110.40
2018-03-07T06:24:32.168Z,113.10
2018-03-07T06:29:33.111Z,111.23
2018-03-07T06:34:34.020Z,109.90
2018-03-07T06:39:34.959Z,111.33
2018-03-07T06:44:35.872Z,113.13
2018-03-07T06:49:36.782Z,115.47
2018-03-07T06:54:37.714Z,114.83
2018-03-07T06:59:38.648Z,114.60
2018-03-07T07:04:39.576Z,112.97
2018-03-07T07:09:40.548Z,114.57
2018-03-07T07:14:41.498Z,113.53
2018-03-07T07:19:42.463Z,109.80
2018-03-07T07:24:43.406Z,112.90
2018-03-07T07:29:44.327Z,109.67
2018-03-07T07:34:45.270Z,117.63
2018-03-07T07:39:46.217Z,111.63
2018-03-07T07:44:47.164Z,113.97
2018-03-07T07:49:48.105Z,116.17
2018-03-07T07:54:49.044Z,107.40
2018-03-07T07:59:49.984Z,113.53
2018-03-07T08:04:50.922Z,116.80
2018-03-07T08:09:51.888Z,109.40
2018-03-07T08:14:52.808Z,116.80
2018-03-07T08:19:53.746Z,111.93
2018-03-07T08:24:54.667Z,109.77
2018-03-07T08:29:55.597Z,108.07
2018-03-07T08:34:56.542Z,114.60
2018-03-07T08:39:57.496Z,109.50
2018-03-07T08:44:58.428Z,115.17
2018-03-07T08:49:59.356Z,116.00
2018-03-07T08:55:00.285Z,109.80
2018-03-07T09:00:01.223Z,111.33
2018-03-07T09:05:02.161Z,110.20
2018-03-07T09:10:09.986Z,109.57
2018-03-07T09:15:10.904Z,116.93
2018-03-07T09:20:11.823Z,111.60
2018-03-07T09:25:12.755Z,111.20
2018-03-07T09:30:13.690Z,113.80
2018-03-07T09:35:14.632Z,109.53
2018-03-07T09:40:15.597Z,107.57
2018-03-07T09:45:16.512Z,110.13
2018-03-07T09:50:17.442Z,113.37
2018-03-07T09:55:18.423Z,110.90
2018-03-07T10:00:19.350Z,111.37
2018-03-07T10:05:20.287Z,106.60
2018-03-07T10:10:21.246Z,112.23
2018-03-07T10:15:22.207Z,107.07
2018-03-07T10:20:23.153Z,105.10
2018-03-07T10:25:24.088Z,102.23
2018-03-07T10:30:25.051Z,100.77
2018-03-07T10:35:25.988Z,96.70
2018-03-07T10:40:26.976Z,97.00
2018-03-07T10:45:27.889Z,95.37
2018-03-07T10:50:28.813Z,89.33
2018-03-07T10:55:29.744Z,87.77
2018-03-07T11:00:36.781Z,78.50
2018-03-07T11:05:37.710Z,77.93
2018-03-07T11:10:38.705Z,74.43
2018-03-07T11:15:39.652Z,69.70
2018-03-07T11:20:40.685Z,65.00
2018-03-07T11:25:41.699Z,60.30
2018-03-07T11:30:42.631Z,62.00
2018-03-07T11:35:43.555Z,59.30
2018-03-07T11:40:44.502Z,56.47
2018-03-07T11:45:45.465Z,53.03
2018-03-07T11:50:46.417Z,50.07
2018-03-07T11:55:47.366Z,48.40
2018-03-07T12:00:48.776Z,44.53
2018-03-07T12:05:49.729Z,44.47
2018-03-07T12:10:50.701Z,41.57
2018-03-07T12:15:51.656Z,42.90
2018-03-07T12:20:52.592Z,43.20
2018-03-07T12:25:53.538Z,41.73
2018-03-07T12:30:55.287Z,41.83
2018-03-07T12:35:57.159Z,39.67
2018-03-07T12:40:58.254Z,40.30
2018-03-07T12:45:59.219Z,40.73
2018-03-07T12:51:01.370Z,39.57
2018-03-07T12:56:03.294Z,36.50
2018-03-07T13:01:05.337Z,41.27
2018-03-07T13:06:07.183Z,40.73
2018-03-07T13:11:08.873Z,44.13
2018-03-07T13:16:10.265Z,47.83
2018-03-07T13:21:12.014Z,44.83
2018-03-07T13:26:13.136Z,43.50
2018-03-07T13:31:14.096Z,45.57
2018-03-07T13:36:15.137Z,43.80
2018-03-07T13:41:16.094Z,40.77
2018-03-07T13:46:17.026Z,38.50
2018-03-07T13:51:17.996Z,39.80
2018-03-07T13:56:19.001Z,41.07
2018-03-07T14:01:19.938Z,39.73
2018-03-07T14:06:20.972Z,43.37
2018-03-07T14:11:21.922Z,38.90
2018-03-07T14:16:22.853Z,37.07
2018-03-07T14:21:23.831Z,35.17
2018-03-07T14:26:24.806Z,35.80
2018-03-07T14:31:25.762Z,36.43
2018-03-07T14:36:26.719Z,36.77
2018-03-07T14:41:27.672Z,34.53
2018-03-07T14:46:28.624Z,35.37
2018-03-07T14:51:29.574Z,35.10
2018-03-07T14:56:30.529Z,35.00
2018-03-07T15:01:31.461Z,35.23
2018-03-07T15:06:32.996Z,35.90
2018-03-07T15:11:34.099Z,33.13
2018-03-07T15:16:35.076Z,31.67
2018-03-07T15:21:36.028Z,34.50
2018-03-07T15:26:37.655Z,32.70
2018-03-07T15:31:39.533Z,32.77
2018-03-07T15:36:40.577Z,31.63
2018-03-07T15:41:41.535Z,33.37
2018-03-07T15:46:42.457Z,30.00
2018-03-07T15:51:43.380Z,31.07
2018-03-07T15:56:44.324Z,32.40
2018-03-07T16:01:45.285Z,35.33
2018-03-07T16:06:46.254Z,35.70
2018-03-07T16:11:47.619Z,37.90
2018-03-07T16:16:48.587Z,36.13
2018-03-07T16:21:49.531Z,34.00
2018-03-07T16:26:50.490Z,39.90
2018-03-07T16:31:51.453Z,40.40
2018-03-07T16:36:52.444Z,39.93
2018-03-07T16:41:54.338Z,44.03
2018-03-07T16:46:55.314Z,41.87
2018-03-07T16:51:56.266Z,41.83
2018-03-07T16:56:57.221Z,42.43
2018-03-07T17:01:58.210Z,42.97
2018-03-07T17:06:59.177Z,41.80
2018-03-07T17:12:00.187Z,41.70
2018-03-07T17:17:01.169Z,45.37
2018-03-07T17:22:02.217Z,45.27
2018-03-07T17:27:03.181Z,44.30
2018-03-07T17:32:04.153Z,43.07
2018-03-07T17:37:05.125Z,41.53
2018-03-07T17:42:06.151Z,43.50
2018-03-07T17:47:07.174Z,40.10
2018-03-07T17:52:08.148Z,39.10
2018-03-07T17:57:09.103Z,37.40
2018-03-07T18:02:10.076Z,41.37
2018-03-07T18:07:11.015Z,40.07
2018-03-07T18:12:12.008Z,40.10
2018-03-07T18:17:12.973Z,39.90
2018-03-07T18:22:13.959Z,40.60
2018-03-07T18:27:14.924Z,39.70
2018-03-07T18:32:15.898Z,39.37
2018-03-07T18:37:16.895Z,40.07
2018-03-07T18:42:17.931Z,40.30
2018-03-07T18:47:18.912Z,41.07
2018-03-07T18:52:19.914Z,41.60
2018-03-07T18:57:20.891Z,40.57
2018-03-07T19:02:21.851Z,40.07
2018-03-07T19:24:07.035Z,40.00
2018-03-07T19:29:08.075Z,38.80
2018-03-07T19:34:09.051Z,42.27
2018-03-07T19:39:10.038Z,39.80
2018-03-07T19:44:11.031Z,38.93
2018-03-07T19:49:12.046Z,40.17
2018-03-07T19:54:13.024Z,41.47
2018-03-07T19:59:14.010Z,38.30
2018-03-07T20:04:15.005Z,38.50
2018-03-07T20:09:16.036Z,41.37
2018-03-07T20:14:17.037Z,41.07
2018-03-07T20:19:18.025Z,41.47
2018-03-07T20:24:18.990Z,39.90
2018-03-07T20:29:20.940Z,40.07
2018-03-07T20:34:21.931Z,41.30
2018-03-07T20:39:22.918Z,44.73
2018-03-07T20:44:23.925Z,43.60
2018-03-07T20:49:24.996Z,40.03
2018-03-07T20:54:25.971Z,42.83
2018-03-07T20:59:26.948Z,43.47
2018-03-07T21:04:27.913Z,43.17
2018-03-07T21:09:28.891Z,40.77
2018-03-07T21:14:29.905Z,44.90
2018-03-07T21:19:30.896Z,42.87
2018-03-07T21:24:31.944Z,46.57
2018-03-07T21:29:32.875Z,42.63
2018-03-07T21:34:33.833Z,45.07
2018-03-07T21:39:34.787Z,44.93
2018-03-07T21:44:35.777Z,46.10
2018-03-07T21:49:36.770Z,45.43
2018-03-07T21:54:37.715Z,47.93
2018-03-07T21:59:38.688Z,46.57
2018-03-07T22:04:39.625Z,47.57
2018-03-07T22:09:40.578Z,48.10
2018-03-07T22:14:41.578Z,47.27
2018-03-07T22:19:42.537Z,48.17
2018-03-07T22:24:43.501Z,47.57
2018-03-07T22:29:44.456Z,45.03
2018-03-07T22:34:45.412Z,47.10
2018-03-07T22:39:46.359Z,47.63
2018-03-07T22:44:47.357Z,50.90
2018-03-07T22:49:48.278Z,54.83
2018-03-07T22:54:49.242Z,52.80
2018-03-07T22:59:50.187Z,54.83
2018-03-07T23:04:51.134Z,56.00
2018-03-07T23:09:52.085Z,53.13
2018-03-07T23:14:53.032Z,50.50
2018-03-07T23:19:54.017Z,42.30
2018-03-07T23:24:54.949Z,45.83
2018-03-07T23:29:55.882Z,45.47
2018-03-07T23:34:56.818Z,53.60
2018-03-07T23:39:57.754Z,53.27
2018-03-07T23:44:58.726Z,56.20
2018-03-07T23:49:59.683Z,52.43
2018-03-07T23:55:00.616Z,52.53
